sensor_id;sensor_type;location;lat;lon;timestamp;pressure;altitude;pressure_sealevel;temperature;humidity
48680;BME280;34475;51.658;5.634;2022-07-17T00:00:00;102430;;;17.6;95.2
48680;BME280;34475;51.658;5.634;2022-07-17T00:01:00;102420;;;17.3;100.0
48680;BME280;34475;51.658;5.634;2022-07-17T00:02:00;102420;;;17.3;100.0
48680;BME280;34475;51.658;5.634;2022-07-17T00:03:00;102420;;;17.3;99.9
48680;BME280;34475;51.658;5.634;2022-07-17T00:04:00;102420;;;17.3;99.9
48680;BME280;34475;51.658;5.634;2022-07-17T00:05:00;102430;;;17.4;100.0
48680;BME280;34475;51.658;5.634;2022-07-17T00:06:00;102430;;;17.4;100.0
48680;BME280;34475;51.658;5.634;2022-07-17T00:07:00;102430;;;17.4;97.9
48680;BME280;34475;51.658;5.634;2022-07-17T00:08:00;102430;;;17.4;97.9
48680;BME280;34475;51.658;5.634;2022-07-17T00:09:00;102430;;;17.5;95.6
48680;BME280;34475;51.658;5.634;2022-07-17T00:10:00;102430;;;17.5;95.6
48680;BME280;34475;51.658;5.634;2022-07-17T00:11:00;102430;;;17.5;96.4
48680;BME280;34475;51.658;5.634;2022-07-17T00:12:00;102430;;;17.5;96.4
48680;BME280;34475;51.658;5.634;2022-07-17T00:13:00;102430;;;17.4;97.5
48680;BME280;34475;51.658;5.634;2022-07-17T00:14:00;102430;;;17.4;97.5
48680;BME280;34475;51.658;5.634;2022-07-17T00:15:00;102430;;;17.4;97.1
48680;BME280;34475;51.658;5.634;2022-07-17T00:16:00;102430;;;17.4;97.1
48680;BME280;34475;51.658;5.634;2022-07-17T00:17:00;102430;;;17.2;99.6
48680;BME280;34475;51.658;5.634;2022-07-17T00:18:00;102430;;;17.2;99.6
48680;BME280;34475;51.658;5.634;2022-07-17T00:19:00;102430;;;17.3;98.5
48680;BME280;34475;51.658;5.634;2022-07-17T00:20:00;102430;;;17.3;98.5
48680;BME280;34475;51.658;5.634;2022-07-17T00:21:00;102420;;;17.2;100.0
48680;BME280;34475;51.658;5.634;2022-07-17T00:22:00;102420;;;17.2;100.0
48680;BME280;34475;51.658;5.634;2022-07-17T00:23:00;102420;;;17.2;99.9
48680;BME280;34475;51.658;5.634;2022-07-17T00:24:00;102420;;;17.2;99.9
48680;BME280;34475;51.658;5.634;2022-07-17T00:25:00;102430;;;17.2;97.8
48680;BME280;34475;51.658;5.634;2022-07-17T00:26:00;102430;;;17.2;97.8
48680;BME280;34475;51.658;5.634;2022-07-17T00:27:00;102430;;;17.2;97.3
48680;BME280;34475;51.658;5.634;2022-07-17T00:28:00;102430;;;17.2;97.3
48680;BME280;34475;51.658;5.634;2022-07-17T00:29:00;102430;;;17.2;100.0
48680;BME280;34475;51.658;5.634;2022-07-17T00:30:00;102430;;;17.2;100.0
48680;BME280;34475;51.658;5.634;2022-07-17T00:31:00;102420;;;17.1;100.0
48680;BME280;34475;51.658;5.634;2022-07-17T00:32:00;102420;;;17.1;100.0
48680;BME280;34475;51.658;5.634;2022-07-17T00:33:00;102420;;;17.0;100.0
48680;BME280;34475;51.658;5.634;2022-07-17T00:34:00;102420;;;17.0;100.0
48680;BME280;34475;51.658;5.634;2022-07-17T00:35:00;102420;;;16.9;100.0
48680;BME280;34475;51.658;5.634;2022-07-17T00:36:00;102420;;;16.9;100.0
48680;BME280;34475;51.658;5.634;2022-07-17T00:37:00;102420;;;17.0;100.0
48680;BME280;34475;51.658;5.634;2022-07-17T00:38:00;102420;;;17.0;100.0
48680;BME280;34475;51.658;5.634;2022-07-17T00:39:00;102420;;;16.8;100.0
48680;BME280;34475;51.658;5.634;2022-07-17T00:40:00;102420;;;16.8;100.0
48680;BME280;34475;51.658;5.634;2022-07-17T00:41:00;102420;;;17.0;100.0
48680;BME280;34475;51.658;5.634;2022-07-17T00:42:00;102420;;;17.0;100.0
48680;BME280;34475;51.658;5.634;2022-07-17T00:43:00;102420;;;17.0;100.0
48680;BME280;34475;51.658;5.634;2022-07-17T00:44:04;102420;;;17.0;100.0
48680;BME280;34475;51.658;5.634;2022-07-17T00:45:00;102420;;;17.0;100.0
48680;BME280;34475;51.658;5.634;2022-07-17T00:46:00;102420;;;17.0;100.0
48680;BME280;34475;51.658;5.634;2022-07-17T00:47:00;102420;;;17.0;99.6
48680;BME280;34475;51.658;5.634;2022-07-17T00:48:01;102420;;;17.0;99.6
48680;BME280;34475;51.658;5.634;2022-07-17T00:49:00;102430;;;17.0;99.0
48680;BME280;34475;51.658;5.634;2022-07-17T00:50:00;102430;;;17.0;99.0
48680;BME280;34475;51.658;5.634;2022-07-17T00:51:00;102430;;;17.0;97.0
48680;BME280;34475;51.658;5.634;2022-07-17T00:52:00;102430;;;17.0;97.0
48680;BME280;34475;51.658;5.634;2022-07-17T00:53:00;102430;;;17.0;99.9
48680;BME280;34475;51.658;5.634;2022-07-17T00:54:00;102430;;;17.0;99.9
48680;BME280;34475;51.658;5.634;2022-07-17T00:55:00;102430;;;16.9;98.0
48680;BME280;34475;51.658;5.634;2022-07-17T00:56:01;102430;;;16.9;98.0
48680;BME280;34475;51.658;5.634;2022-07-17T00:57:00;102430;;;17.0;98.6
48680;BME280;34475;51.658;5.634;2022-07-17T00:58:00;102430;;;17.0;98.6
48680;BME280;34475;51.658;5.634;2022-07-17T00:59:00;102430;;;17.0;98.9
48680;BME280;34475;51.658;5.634;2022-07-17T01:00:00;102430;;;17.0;98.9
48680;BME280;34475;51.658;5.634;2022-07-17T01:01:00;102430;;;17.0;97.0
48680;BME280;34475;51.658;5.634;2022-07-17T01:02:02;102430;;;17.0;97.0
48680;BME280;34475;51.658;5.634;2022-07-17T01:03:00;102430;;;17.0;96.8
48680;BME280;34475;51.658;5.634;2022-07-17T01:04:00;102430;;;17.0;96.8
48680;BME280;34475;51.658;5.634;2022-07-17T01:05:00;102430;;;17.0;97.0
48680;BME280;34475;51.658;5.634;2022-07-17T01:06:00;102430;;;17.0;97.0
48680;BME280;34475;51.658;5.634;2022-07-17T01:07:00;102420;;;16.9;99.6
48680;BME280;34475;51.658;5.634;2022-07-17T01:08:00;102420;;;16.9;99.6
48680;BME280;34475;51.658;5.634;2022-07-17T01:09:00;102420;;;16.9;97.7
48680;BME280;34475;51.658;5.634;2022-07-17T01:10:00;102420;;;16.9;97.7
48680;BME280;34475;51.658;5.634;2022-07-17T01:11:00;102420;;;16.9;99.8
48680;BME280;34475;51.658;5.634;2022-07-17T01:12:00;102420;;;16.9;99.8
48680;BME280;34475;51.658;5.634;2022-07-17T01:13:00;102420;;;16.8;99.4
48680;BME280;34475;51.658;5.634;2022-07-17T01:14:00;102420;;;16.8;99.4
48680;BME280;34475;51.658;5.634;2022-07-17T01:15:00;102410;;;16.9;97.4
48680;BME280;34475;51.658;5.634;2022-07-17T01:16:00;102410;;;16.9;97.4
48680;BME280;34475;51.658;5.634;2022-07-17T01:17:00;102410;;;16.8;99.9
48680;BME280;34475;51.658;5.634;2022-07-17T01:18:00;102410;;;16.8;99.9
48680;BME280;34475;51.658;5.634;2022-07-17T01:19:00;102410;;;16.8;98.7
48680;BME280;34475;51.658;5.634;2022-07-17T01:20:00;102410;;;16.8;98.7
48680;BME280;34475;51.658;5.634;2022-07-17T01:21:04;102410;;;16.8;96.4
48680;BME280;34475;51.658;5.634;2022-07-17T01:22:00;102410;;;16.8;96.4
48680;BME280;34475;51.658;5.634;2022-07-17T01:23:00;102410;;;16.8;95.5
48680;BME280;34475;51.658;5.634;2022-07-17T01:24:00;102410;;;16.8;95.5
48680;BME280;34475;51.658;5.634;2022-07-17T01:25:00;102410;;;16.8;97.4
48680;BME280;34475;51.658;5.634;2022-07-17T01:26:00;102410;;;16.8;97.4
48680;BME280;34475;51.658;5.634;2022-07-17T01:27:00;102410;;;16.7;98.7
48680;BME280;34475;51.658;5.634;2022-07-17T01:28:00;102410;;;16.7;98.7
48680;BME280;34475;51.658;5.634;2022-07-17T01:29:00;102410;;;16.8;98.3
48680;BME280;34475;51.658;5.634;2022-07-17T01:30:00;102410;;;16.8;98.3
48680;BME280;34475;51.658;5.634;2022-07-17T01:31:00;102410;;;16.7;97.9
48680;BME280;34475;51.658;5.634;2022-07-17T01:32:00;102410;;;16.7;97.9
48680;BME280;34475;51.658;5.634;2022-07-17T01:33:00;102410;;;16.6;98.3
48680;BME280;34475;51.658;5.634;2022-07-17T01:34:00;102410;;;16.6;98.3
48680;BME280;34475;51.658;5.634;2022-07-17T01:35:00;102420;;;16.7;96.8
48680;BME280;34475;51.658;5.634;2022-07-17T01:36:00;102420;;;16.7;96.8
48680;BME280;34475;51.658;5.634;2022-07-17T01:37:00;102410;;;16.7;96.5
48680;BME280;34475;51.658;5.634;2022-07-17T01:38:00;102410;;;16.7;96.5
48680;BME280;34475;51.658;5.634;2022-07-17T01:39:00;102420;;;16.6;98.3
48680;BME280;34475;51.658;5.634;2022-07-17T01:40:00;102420;;;16.6;98.3
48680;BME280;34475;51.658;5.634;2022-07-17T01:41:00;102420;;;16.6;98.8
48680;BME280;34475;51.658;5.634;2022-07-17T01:42:00;102420;;;16.6;98.8
48680;BME280;34475;51.658;5.634;2022-07-17T01:43:00;102430;;;16.5;100.0
48680;BME280;34475;51.658;5.634;2022-07-17T01:44:00;102430;;;16.5;100.0
48680;BME280;34475;51.658;5.634;2022-07-17T01:45:00;102420;;;16.5;100.0
48680;BME280;34475;51.658;5.634;2022-07-17T01:46:00;102420;;;16.5;100.0
48680;BME280;34475;51.658;5.634;2022-07-17T01:47:00;102420;;;16.3;100.0
48680;BME280;34475;51.658;5.634;2022-07-17T01:48:00;102420;;;16.3;100.0
48680;BME280;34475;51.658;5.634;2022-07-17T01:49:00;102420;;;16.2;100.0
48680;BME280;34475;51.658;5.634;2022-07-17T01:50:00;102420;;;16.2;100.0
48680;BME280;34475;51.658;5.634;2022-07-17T01:51:00;102420;;;16.1;100.0
48680;BME280;34475;51.658;5.634;2022-07-17T01:52:00;102420;;;16.1;100.0
48680;BME280;34475;51.658;5.634;2022-07-17T01:53:00;102420;;;16.1;100.0
48680;BME280;34475;51.658;5.634;2022-07-17T01:54:00;102420;;;16.1;100.0
48680;BME280;34475;51.658;5.634;2022-07-17T01:55:00;102410;;;16.0;100.0
48680;BME280;34475;51.658;5.634;2022-07-17T01:56:00;102410;;;16.0;100.0
48680;BME280;34475;51.658;5.634;2022-07-17T01:57:00;102410;;;16.0;100.0
48680;BME280;34475;51.658;5.634;2022-07-17T01:58:00;102410;;;16.0;100.0
48680;BME280;34475;51.658;5.634;2022-07-17T01:59:00;102410;;;15.9;100.0
48680;BME280;34475;51.658;5.634;2022-07-17T02:00:00;102410;;;15.9;100.0
48680;BME280;34475;51.658;5.634;2022-07-17T02:01:00;102410;;;15.9;100.0
48680;BME280;34475;51.658;5.634;2022-07-17T02:02:00;102410;;;15.9;100.0
48680;BME280;34475;51.658;5.634;2022-07-17T02:03:00;102410;;;15.9;100.0
48680;BME280;34475;51.658;5.634;2022-07-17T02:04:00;102410;;;15.9;100.0
48680;BME280;34475;51.658;5.634;2022-07-17T02:05:00;102410;;;15.9;100.0
48680;BME280;34475;51.658;5.634;2022-07-17T02:06:00;102410;;;15.9;100.0
48680;BME280;34475;51.658;5.634;2022-07-17T02:07:00;102410;;;16.0;100.0
48680;BME280;34475;51.658;5.634;2022-07-17T02:08:00;102410;;;16.0;100.0
48680;BME280;34475;51.658;5.634;2022-07-17T02:09:00;102410;;;16.0;100.0
48680;BME280;34475;51.658;5.634;2022-07-17T02:10:00;102410;;;16.0;100.0
48680;BME280;34475;51.658;5.634;2022-07-17T02:11:00;102420;;;16.0;100.0
48680;BME280;34475;51.658;5.634;2022-07-17T02:12:00;102420;;;16.0;100.0
48680;BME280;34475;51.658;5.634;2022-07-17T02:13:00;102420;;;16.0;100.0
48680;BME280;34475;51.658;5.634;2022-07-17T02:14:00;102420;;;16.0;100.0
48680;BME280;34475;51.658;5.634;2022-07-17T02:15:00;102430;;;16.0;100.0
48680;BME280;34475;51.658;5.634;2022-07-17T02:16:00;102430;;;16.0;100.0
48680;BME280;34475;51.658;5.634;2022-07-17T02:17:00;102420;;;16.0;100.0
48680;BME280;34475;51.658;5.634;2022-07-17T02:18:00;102420;;;16.0;100.0
48680;BME280;34475;51.658;5.634;2022-07-17T02:19:00;102420;;;16.0;100.0
48680;BME280;34475;51.658;5.634;2022-07-17T02:20:00;102420;;;16.0;100.0
48680;BME280;34475;51.658;5.634;2022-07-17T02:21:00;102410;;;16.0;100.0
48680;BME280;34475;51.658;5.634;2022-07-17T02:22:00;102410;;;16.0;100.0
48680;BME280;34475;51.658;5.634;2022-07-17T02:23:00;102420;;;15.9;100.0
48680;BME280;34475;51.658;5.634;2022-07-17T02:24:00;102420;;;15.9;100.0
48680;BME280;34475;51.658;5.634;2022-07-17T02:25:00;102420;;;15.8;100.0
48680;BME280;34475;51.658;5.634;2022-07-17T02:26:00;102420;;;15.8;100.0
48680;BME280;34475;51.658;5.634;2022-07-17T02:27:00;102420;;;15.9;100.0
48680;BME280;34475;51.658;5.634;2022-07-17T02:28:00;102420;;;15.9;100.0
48680;BME280;34475;51.658;5.634;2022-07-17T02:29:00;102420;;;15.9;100.0
48680;BME280;34475;51.658;5.634;2022-07-17T02:30:02;102420;;;15.9;100.0
48680;BME280;34475;51.658;5.634;2022-07-17T02:31:00;102420;;;15.8;100.0
48680;BME280;34475;51.658;5.634;2022-07-17T02:32:00;102420;;;15.8;100.0
48680;BME280;34475;51.658;5.634;2022-07-17T02:33:00;102420;;;15.8;100.0
48680;BME280;34475;51.658;5.634;2022-07-17T02:34:00;102420;;;15.8;100.0
48680;BME280;34475;51.658;5.634;2022-07-17T02:35:00;102420;;;15.8;100.0
48680;BME280;34475;51.658;5.634;2022-07-17T02:36:00;102420;;;15.8;100.0
48680;BME280;34475;51.658;5.634;2022-07-17T02:37:00;102420;;;15.8;100.0
48680;BME280;34475;51.658;5.634;2022-07-17T02:38:00;102420;;;15.8;100.0
48680;BME280;34475;51.658;5.634;2022-07-17T02:39:00;102420;;;15.8;100.0
48680;BME280;34475;51.658;5.634;2022-07-17T02:40:00;102420;;;15.8;100.0
48680;BME280;34475;51.658;5.634;2022-07-17T02:41:00;102420;;;15.8;100.0
48680;BME280;34475;51.658;5.634;2022-07-17T02:42:00;102420;;;15.8;100.0
48680;BME280;34475;51.658;5.634;2022-07-17T02:43:00;102420;;;15.7;100.0
48680;BME280;34475;51.658;5.634;2022-07-17T02:44:00;102420;;;15.7;100.0
48680;BME280;34475;51.658;5.634;2022-07-17T02:45:00;102430;;;15.5;100.0
48680;BME280;34475;51.658;5.634;2022-07-17T02:46:00;102430;;;15.5;100.0
48680;BME280;34475;51.658;5.634;2022-07-17T02:47:00;102420;;;15.3;100.0
48680;BME280;34475;51.658;5.634;2022-07-17T02:48:00;102420;;;15.3;100.0
48680;BME280;34475;51.658;5.634;2022-07-17T02:49:00;102420;;;15.5;100.0
48680;BME280;34475;51.658;5.634;2022-07-17T02:50:00;102420;;;15.5;100.0
48680;BME280;34475;51.658;5.634;2022-07-17T02:51:00;102420;;;15.6;100.0
48680;BME280;34475;51.658;5.634;2022-07-17T02:52:00;102420;;;15.6;100.0
48680;BME280;34475;51.658;5.634;2022-07-17T02:53:00;102410;;;15.4;100.0
48680;BME280;34475;51.658;5.634;2022-07-17T02:54:00;102410;;;15.4;100.0
48680;BME280;34475;51.658;5.634;2022-07-17T02:55:00;102410;;;15.4;100.0
48680;BME280;34475;51.658;5.634;2022-07-17T02:56:00;102410;;;15.4;100.0
48680;BME280;34475;51.658;5.634;2022-07-17T02:57:00;102410;;;15.5;100.0
48680;BME280;34475;51.658;5.634;2022-07-17T02:58:00;102410;;;15.5;100.0
48680;BME280;34475;51.658;5.634;2022-07-17T02:59:00;102420;;;15.6;100.0
48680;BME280;34475;51.658;5.634;2022-07-17T03:00:00;102420;;;15.6;100.0
48680;BME280;34475;51.658;5.634;2022-07-17T03:01:00;102420;;;15.3;100.0
48680;BME280;34475;51.658;5.634;2022-07-17T03:02:00;102420;;;15.3;100.0
48680;BME280;34475;51.658;5.634;2022-07-17T03:03:00;102420;;;15.4;100.0
48680;BME280;34475;51.658;5.634;2022-07-17T03:04:00;102420;;;15.4;100.0
48680;BME280;34475;51.658;5.634;2022-07-17T03:05:00;102410;;;15.4;100.0
48680;BME280;34475;51.658;5.634;2022-07-17T03:06:00;102410;;;15.4;100.0
48680;BME280;34475;51.658;5.634;2022-07-17T03:07:00;102420;;;15.5;100.0
48680;BME280;34475;51.658;5.634;2022-07-17T03:08:00;102420;;;15.5;100.0
48680;BME280;34475;51.658;5.634;2022-07-17T03:09:00;102420;;;15.2;100.0
48680;BME280;34475;51.658;5.634;2022-07-17T03:10:00;102420;;;15.2;100.0
48680;BME280;34475;51.658;5.634;2022-07-17T03:11:00;102420;;;15.3;100.0
48680;BME280;34475;51.658;5.634;2022-07-17T03:12:00;102420;;;15.3;100.0
48680;BME280;34475;51.658;5.634;2022-07-17T03:13:00;102420;;;15.4;100.0
48680;BME280;34475;51.658;5.634;2022-07-17T03:14:00;102420;;;15.4;100.0
48680;BME280;34475;51.658;5.634;2022-07-17T03:15:00;102430;;;15.1;100.0
48680;BME280;34475;51.658;5.634;2022-07-17T03:16:00;102430;;;15.1;100.0
48680;BME280;34475;51.658;5.634;2022-07-17T03:17:00;102430;;;15.3;100.0
48680;BME280;34475;51.658;5.634;2022-07-17T03:18:00;102430;;;15.3;100.0
48680;BME280;34475;51.658;5.634;2022-07-17T03:19:00;102430;;;15.2;100.0
48680;BME280;34475;51.658;5.634;2022-07-17T03:20:00;102430;;;15.2;100.0
48680;BME280;34475;51.658;5.634;2022-07-17T03:21:00;102430;;;15.1;100.0
48680;BME280;34475;51.658;5.634;2022-07-17T03:22:00;102430;;;15.1;100.0
48680;BME280;34475;51.658;5.634;2022-07-17T03:23:00;102430;;;15.1;100.0
48680;BME280;34475;51.658;5.634;2022-07-17T03:24:00;102430;;;15.1;100.0
48680;BME280;34475;51.658;5.634;2022-07-17T03:25:00;102430;;;15.1;100.0
48680;BME280;34475;51.658;5.634;2022-07-17T03:26:00;102430;;;15.1;100.0
48680;BME280;34475;51.658;5.634;2022-07-17T03:27:00;102430;;;15.1;100.0
48680;BME280;34475;51.658;5.634;2022-07-17T03:28:00;102430;;;15.1;100.0
48680;BME280;34475;51.658;5.634;2022-07-17T03:29:00;102430;;;15.1;100.0
48680;BME280;34475;51.658;5.634;2022-07-17T03:30:00;102430;;;15.1;100.0
48680;BME280;34475;51.658;5.634;2022-07-17T03:31:00;102430;;;15.1;100.0
48680;BME280;34475;51.658;5.634;2022-07-17T03:32:00;102430;;;15.1;100.0
48680;BME280;34475;51.658;5.634;2022-07-17T03:33:00;102430;;;15.1;100.0
48680;BME280;34475;51.658;5.634;2022-07-17T03:34:00;102430;;;15.1;100.0
48680;BME280;34475;51.658;5.634;2022-07-17T03:35:00;102430;;;15.1;100.0
48680;BME280;34475;51.658;5.634;2022-07-17T03:36:00;102430;;;15.1;100.0
48680;BME280;34475;51.658;5.634;2022-07-17T03:37:00;102430;;;15.2;100.0
48680;BME280;34475;51.658;5.634;2022-07-17T03:38:00;102430;;;15.2;100.0
48680;BME280;34475;51.658;5.634;2022-07-17T03:39:00;102430;;;15.1;100.0
48680;BME280;34475;51.658;5.634;2022-07-17T03:40:00;102430;;;15.1;100.0
48680;BME280;34475;51.658;5.634;2022-07-17T03:41:00;102430;;;15.0;100.0
48680;BME280;34475;51.658;5.634;2022-07-17T03:42:00;102430;;;15.0;100.0
48680;BME280;34475;51.658;5.634;2022-07-17T03:43:00;102420;;;15.0;100.0
48680;BME280;34475;51.658;5.634;2022-07-17T03:44:00;102420;;;15.0;100.0
48680;BME280;34475;51.658;5.634;2022-07-17T03:45:00;102420;;;14.9;100.0
48680;BME280;34475;51.658;5.634;2022-07-17T03:46:00;102420;;;14.9;100.0
48680;BME280;34475;51.658;5.634;2022-07-17T03:47:00;102420;;;14.9;100.0
48680;BME280;34475;51.658;5.634;2022-07-17T03:48:00;102420;;;14.9;100.0
48680;BME280;34475;51.658;5.634;2022-07-17T03:49:00;102420;;;14.7;100.0
48680;BME280;34475;51.658;5.634;2022-07-17T03:50:00;102420;;;14.7;100.0
48680;BME280;34475;51.658;5.634;2022-07-17T03:51:00;102420;;;14.6;100.0
48680;BME280;34475;51.658;5.634;2022-07-17T03:52:00;102420;;;14.6;100.0
48680;BME280;34475;51.658;5.634;2022-07-17T03:53:00;102420;;;14.8;100.0
48680;BME280;34475;51.658;5.634;2022-07-17T03:54:00;102420;;;14.8;100.0
48680;BME280;34475;51.658;5.634;2022-07-17T03:55:00;102410;;;14.8;100.0
48680;BME280;34475;51.658;5.634;2022-07-17T03:56:00;102410;;;14.8;100.0
48680;BME280;34475;51.658;5.634;2022-07-17T03:57:00;102420;;;14.8;100.0
48680;BME280;34475;51.658;5.634;2022-07-17T03:58:00;102420;;;14.8;100.0
48680;BME280;34475;51.658;5.634;2022-07-17T03:59:00;102420;;;14.7;100.0
48680;BME280;34475;51.658;5.634;2022-07-17T04:00:00;102420;;;14.7;100.0
48680;BME280;34475;51.658;5.634;2022-07-17T04:01:00;102420;;;14.6;100.0
48680;BME280;34475;51.658;5.634;2022-07-17T04:02:00;102420;;;14.6;100.0
48680;BME280;34475;51.658;5.634;2022-07-17T04:03:00;102410;;;14.7;100.0
48680;BME280;34475;51.658;5.634;2022-07-17T04:04:00;102410;;;14.7;100.0
48680;BME280;34475;51.658;5.634;2022-07-17T04:05:00;102430;;;14.8;100.0
48680;BME280;34475;51.658;5.634;2022-07-17T04:06:00;102430;;;14.8;100.0
48680;BME280;34475;51.658;5.634;2022-07-17T04:07:00;102440;;;14.8;100.0
48680;BME280;34475;51.658;5.634;2022-07-17T04:08:00;102440;;;14.8;100.0
48680;BME280;34475;51.658;5.634;2022-07-17T04:09:00;102440;;;14.8;100.0
48680;BME280;34475;51.658;5.634;2022-07-17T04:10:00;102440;;;14.8;100.0
48680;BME280;34475;51.658;5.634;2022-07-17T04:11:00;102440;;;14.8;100.0
48680;BME280;34475;51.658;5.634;2022-07-17T04:12:00;102440;;;14.8;100.0
48680;BME280;34475;51.658;5.634;2022-07-17T04:13:00;102440;;;14.7;100.0
48680;BME280;34475;51.658;5.634;2022-07-17T04:14:00;102440;;;14.7;100.0
48680;BME280;34475;51.658;5.634;2022-07-17T04:15:00;102450;;;14.6;100.0
48680;BME280;34475;51.658;5.634;2022-07-17T04:16:00;102450;;;14.6;100.0
48680;BME280;34475;51.658;5.634;2022-07-17T04:17:00;102460;;;14.5;100.0
48680;BME280;34475;51.658;5.634;2022-07-17T04:18:00;102460;;;14.5;100.0
48680;BME280;34475;51.658;5.634;2022-07-17T04:19:00;102460;;;14.7;100.0
48680;BME280;34475;51.658;5.634;2022-07-17T04:20:00;102460;;;14.7;100.0
48680;BME280;34475;51.658;5.634;2022-07-17T04:21:00;102450;;;14.8;100.0
48680;BME280;34475;51.658;5.634;2022-07-17T04:22:00;102450;;;14.8;100.0
48680;BME280;34475;51.658;5.634;2022-07-17T04:23:00;102450;;;14.8;100.0
48680;BME280;34475;51.658;5.634;2022-07-17T04:24:00;102450;;;14.8;100.0
48680;BME280;34475;51.658;5.634;2022-07-17T04:25:00;102450;;;14.6;100.0
48680;BME280;34475;51.658;5.634;2022-07-17T04:26:00;102450;;;14.6;100.0
48680;BME280;34475;51.658;5.634;2022-07-17T04:27:00;102440;;;14.6;100.0
48680;BME280;34475;51.658;5.634;2022-07-17T04:28:00;102440;;;14.6;100.0
48680;BME280;34475;51.658;5.634;2022-07-17T04:29:00;102440;;;14.7;100.0
48680;BME280;34475;51.658;5.634;2022-07-17T04:30:00;102440;;;14.7;100.0
48680;BME280;34475;51.658;5.634;2022-07-17T04:31:00;102440;;;14.7;100.0
48680;BME280;34475;51.658;5.634;2022-07-17T04:32:00;102440;;;14.7;100.0
48680;BME280;34475;51.658;5.634;2022-07-17T04:33:00;102450;;;14.8;100.0
48680;BME280;34475;51.658;5.634;2022-07-17T04:34:00;102450;;;14.8;100.0
48680;BME280;34475;51.658;5.634;2022-07-17T04:35:00;102440;;;14.8;100.0
48680;BME280;34475;51.658;5.634;2022-07-17T04:36:00;102440;;;14.8;100.0
48680;BME280;34475;51.658;5.634;2022-07-17T04:37:00;102440;;;14.6;100.0
48680;BME280;34475;51.658;5.634;2022-07-17T04:38:00;102440;;;14.6;100.0
48680;BME280;34475;51.658;5.634;2022-07-17T04:39:00;102440;;;14.6;100.0
48680;BME280;34475;51.658;5.634;2022-07-17T04:40:00;102440;;;14.6;100.0
48680;BME280;34475;51.658;5.634;2022-07-17T04:41:00;102440;;;14.7;100.0
48680;BME280;34475;51.658;5.634;2022-07-17T04:42:00;102440;;;14.7;100.0
48680;BME280;34475;51.658;5.634;2022-07-17T04:43:00;102450;;;14.7;100.0
48680;BME280;34475;51.658;5.634;2022-07-17T04:44:00;102450;;;14.7;100.0
48680;BME280;34475;51.658;5.634;2022-07-17T04:45:00;102450;;;14.6;100.0
48680;BME280;34475;51.658;5.634;2022-07-17T04:46:00;102450;;;14.6;100.0
48680;BME280;34475;51.658;5.634;2022-07-17T04:47:00;102450;;;14.7;100.0
48680;BME280;34475;51.658;5.634;2022-07-17T04:48:00;102450;;;14.7;100.0
48680;BME280;34475;51.658;5.634;2022-07-17T04:49:00;102460;;;14.7;100.0
48680;BME280;34475;51.658;5.634;2022-07-17T04:50:00;102460;;;14.7;100.0
48680;BME280;34475;51.658;5.634;2022-07-17T04:51:00;102460;;;14.7;100.0
48680;BME280;34475;51.658;5.634;2022-07-17T04:52:00;102460;;;14.7;100.0
48680;BME280;34475;51.658;5.634;2022-07-17T04:53:00;102460;;;14.8;100.0
48680;BME280;34475;51.658;5.634;2022-07-17T04:54:00;102460;;;14.8;100.0
48680;BME280;34475;51.658;5.634;2022-07-17T04:55:00;102460;;;14.7;100.0
48680;BME280;34475;51.658;5.634;2022-07-17T04:56:00;102460;;;14.7;100.0
48680;BME280;34475;51.658;5.634;2022-07-17T04:57:00;102460;;;14.7;100.0
48680;BME280;34475;51.658;5.634;2022-07-17T04:58:00;102460;;;14.7;100.0
48680;BME280;34475;51.658;5.634;2022-07-17T04:59:00;102460;;;14.7;100.0
48680;BME280;34475;51.658;5.634;2022-07-17T05:00:00;102460;;;14.7;100.0
48680;BME280;34475;51.658;5.634;2022-07-17T05:01:00;102470;;;14.7;100.0
48680;BME280;34475;51.658;5.634;2022-07-17T05:02:00;102470;;;14.7;100.0
48680;BME280;34475;51.658;5.634;2022-07-17T05:03:00;102470;;;14.7;100.0
48680;BME280;34475;51.658;5.634;2022-07-17T05:04:00;102470;;;14.7;100.0
48680;BME280;34475;51.658;5.634;2022-07-17T05:05:00;102460;;;14.8;100.0
48680;BME280;34475;51.658;5.634;2022-07-17T05:06:00;102460;;;14.8;100.0
48680;BME280;34475;51.658;5.634;2022-07-17T05:07:00;102460;;;14.8;100.0
48680;BME280;34475;51.658;5.634;2022-07-17T05:08:00;102460;;;14.8;100.0
48680;BME280;34475;51.658;5.634;2022-07-17T05:09:00;102460;;;14.9;100.0
48680;BME280;34475;51.658;5.634;2022-07-17T05:10:00;102460;;;14.9;100.0
48680;BME280;34475;51.658;5.634;2022-07-17T05:11:00;102460;;;15.0;100.0
48680;BME280;34475;51.658;5.634;2022-07-17T05:12:00;102460;;;15.0;100.0
48680;BME280;34475;51.658;5.634;2022-07-17T05:13:00;102450;;;15.0;100.0
48680;BME280;34475;51.658;5.634;2022-07-17T05:14:00;102450;;;15.0;100.0
48680;BME280;34475;51.658;5.634;2022-07-17T05:15:00;102460;;;15.0;100.0
48680;BME280;34475;51.658;5.634;2022-07-17T05:16:00;102460;;;15.0;100.0
48680;BME280;34475;51.658;5.634;2022-07-17T05:17:00;102460;;;14.9;100.0
48680;BME280;34475;51.658;5.634;2022-07-17T05:18:00;102460;;;14.9;100.0
48680;BME280;34475;51.658;5.634;2022-07-17T05:19:00;102470;;;15.0;100.0
48680;BME280;34475;51.658;5.634;2022-07-17T05:20:00;102470;;;15.0;100.0
48680;BME280;34475;51.658;5.634;2022-07-17T05:21:00;102460;;;14.9;100.0
48680;BME280;34475;51.658;5.634;2022-07-17T05:22:00;102460;;;14.9;100.0
48680;BME280;34475;51.658;5.634;2022-07-17T05:23:00;102460;;;15.0;100.0
48680;BME280;34475;51.658;5.634;2022-07-17T05:24:00;102460;;;15.0;100.0
48680;BME280;34475;51.658;5.634;2022-07-17T05:25:00;102460;;;15.0;100.0
48680;BME280;34475;51.658;5.634;2022-07-17T05:26:00;102460;;;15.0;100.0
48680;BME280;34475;51.658;5.634;2022-07-17T05:27:00;102460;;;15.1;100.0
48680;BME280;34475;51.658;5.634;2022-07-17T05:28:00;102460;;;15.1;100.0
48680;BME280;34475;51.658;5.634;2022-07-17T05:29:00;102460;;;15.1;100.0
48680;BME280;34475;51.658;5.634;2022-07-17T05:30:00;102460;;;15.1;100.0
48680;BME280;34475;51.658;5.634;2022-07-17T05:31:00;102460;;;15.3;100.0